createdAt,value
2023-04-22T00:00:31.036Z,14494.0000
2023-04-22T00:01:39.090Z,14498.9287
2023-04-22T00:02:47.128Z,14497.6426
2023-04-22T00:03:55.207Z,14500.1426
2023-04-22T00:05:03.353Z,14500.6426
2023-04-22T00:06:11.530Z,14505.3574
2023-04-22T00:07:19.420Z,14514.5713
2023-04-22T00:08:27.473Z,14521.0713
2023-04-22T00:09:35.634Z,14530.5000
2023-04-22T00:10:43.558Z,14535.0000
2023-04-22T00:11:51.685Z,14539.3574
2023-04-22T00:12:59.766Z,14540.4287
2023-04-22T00:14:07.782Z,14543.7861
2023-04-22T00:15:16.042Z,14550.0713
2023-04-22T00:16:23.916Z,14556.8574
2023-04-22T00:17:32.025Z,14563.0713
2023-04-22T00:18:39.899Z,14568.4287
2023-04-22T00:19:47.949Z,14571.8574
2023-04-22T00:20:56.179Z,14569.5713
2023-04-22T00:22:04.229Z,14568.8574
2023-04-22T00:23:12.347Z,14571.9287
2023-04-22T00:24:20.343Z,14569.6426
2023-04-22T00:25:28.427Z,14568.7139
2023-04-22T00:26:36.554Z,14569.2139
2023-04-22T00:27:44.422Z,14573.5713
2023-04-22T00:28:52.659Z,14578.6426
2023-04-22T00:30:00.708Z,14583.2861
2023-04-22T00:31:08.804Z,14586.7139
2023-04-22T00:32:16.704Z,14590.3574
2023-04-22T00:33:24.747Z,14592.0000
2023-04-22T00:34:32.806Z,14588.9287
2023-04-22T00:35:41.640Z,14583.4287
2023-04-22T00:36:49.030Z,14587.4287
2023-04-22T00:37:57.218Z,14584.4287
2023-04-22T00:39:05.212Z,14567.4287
2023-04-22T00:40:13.320Z,14555.0713
2023-04-22T00:41:21.329Z,14547.4287
2023-04-22T00:42:29.438Z,14548.3574
2023-04-22T00:43:37.479Z,14552.9287
2023-04-22T00:44:45.547Z,14558.5000
2023-04-22T00:45:53.741Z,14560.0713
2023-04-22T00:47:01.595Z,14556.2139
2023-04-22T00:48:09.699Z,14552.9287
2023-04-22T00:49:17.677Z,14549.8574
2023-04-22T00:50:26.117Z,14547.3574
2023-04-22T00:51:33.989Z,14545.7139
2023-04-22T00:52:42.014Z,14542.3574
2023-04-22T00:53:50.044Z,14537.6426
2023-04-22T00:54:58.139Z,14542.7139
2023-04-22T00:56:06.198Z,14548.6426
2023-04-22T00:57:14.355Z,14552.5713
2023-04-22T00:58:22.291Z,14554.9287
2023-04-22T00:59:30.398Z,14561.2861
2023-04-22T01:00:38.460Z,14563.0713
2023-04-22T01:01:46.442Z,14563.5713
2023-04-22T01:02:54.597Z,14555.4287
2023-04-22T01:04:02.627Z,14558.5000
2023-04-22T01:05:10.954Z,14563.9287
2023-04-22T01:06:18.746Z,14568.7139
2023-04-22T01:07:26.957Z,14568.9287
2023-04-22T01:08:34.930Z,14566.8574
2023-04-22T01:09:43.050Z,14567.0713
2023-04-22T01:10:51.052Z,14566.0713
2023-04-22T01:11:59.112Z,14563.5000
2023-04-22T01:13:07.213Z,14562.0713
2023-04-22T01:14:15.234Z,14566.5000
2023-04-22T01:15:23.305Z,14571.4287
2023-04-22T01:16:31.360Z,14579.3574
2023-04-22T01:17:39.389Z,14582.1426
2023-04-22T01:18:47.388Z,14581.2861
2023-04-22T01:19:55.593Z,14586.4287
2023-04-22T01:21:03.823Z,14590.9287
2023-04-22T01:22:11.947Z,14596.2139
2023-04-22T01:23:19.765Z,14601.6426
2023-04-22T01:24:27.930Z,14599.2861
2023-04-22T01:25:35.896Z,14599.7861
2023-04-22T01:26:43.951Z,14598.6426
2023-04-22T01:27:52.196Z,14601.8574
2023-04-22T01:29:00.121Z,14604.2861
2023-04-22T01:30:08.221Z,14608.2861
2023-04-22T01:31:16.094Z,14607.7861
2023-04-22T01:32:24.203Z,14612.8574
2023-04-22T01:33:32.222Z,14613.5713
2023-04-22T01:34:40.372Z,14610.8574
2023-04-22T01:35:48.604Z,14608.0000
2023-04-22T01:36:56.690Z,14601.8574
2023-04-22T01:38:04.603Z,14594.2861
2023-04-22T01:39:12.720Z,14587.7139
2023-04-22T01:40:20.762Z,14577.7861
2023-04-22T01:41:28.815Z,14572.2861
2023-04-22T01:42:36.873Z,14565.2861
2023-04-22T01:43:44.958Z,14563.7139
2023-04-22T01:44:53.169Z,14564.3574
2023-04-22T01:46:00.944Z,14560.5000
2023-04-22T01:47:09.042Z,14562.8574
2023-04-22T01:48:17.083Z,14562.7861
2023-04-22T01:49:25.255Z,14564.7861
2023-04-22T01:50:33.336Z,14565.7139
2023-04-22T01:51:41.456Z,14564.5713
2023-04-22T01:52:49.618Z,14572.2861
2023-04-22T01:53:57.491Z,14579.0713
2023-04-22T01:55:05.586Z,14582.5000
2023-04-22T01:56:13.641Z,14579.5000
2023-04-22T01:57:21.750Z,14580.2139
2023-04-22T01:58:29.840Z,14583.7861
2023-04-22T01:59:38.194Z,14588.0713
2023-04-22T02:00:45.792Z,14591.7139
2023-04-22T02:01:53.879Z,14590.2139
2023-04-22T02:03:02.282Z,14592.3574
2023-04-22T02:04:10.181Z,14583.0000
2023-04-22T02:05:18.232Z,14582.3574
2023-04-22T02:06:26.329Z,14586.7861
2023-04-22T02:07:34.374Z,14587.3574
2023-04-22T02:08:42.636Z,14589.0713
2023-04-22T02:09:50.977Z,14586.2139
2023-04-22T02:10:58.619Z,14591.7861
2023-04-22T02:12:06.654Z,14589.5000
2023-04-22T02:13:14.722Z,14587.0713
2023-04-22T02:14:22.792Z,14592.5713
2023-04-22T02:15:30.716Z,14585.5000
2023-04-22T02:16:38.798Z,14582.2861
2023-04-22T02:17:46.818Z,14577.4287
2023-04-22T02:18:55.143Z,14580.5000
2023-04-22T02:20:03.166Z,14583.3574
2023-04-22T02:21:11.388Z,14585.9287
2023-04-22T02:22:19.272Z,14587.5713
2023-04-22T02:23:27.294Z,14583.5000
2023-04-22T02:24:35.549Z,14585.8574
2023-04-22T02:25:43.412Z,14591.8574
2023-04-22T02:26:51.490Z,14594.0000
2023-04-22T02:27:59.535Z,14588.2139
2023-04-22T02:29:07.609Z,14573.2139
2023-04-22T02:30:15.648Z,14571.7861
2023-04-22T02:31:23.614Z,14566.5713
2023-04-22T02:32:31.792Z,14564.5713
2023-04-22T02:33:39.907Z,14563.7861
2023-04-22T02:34:47.954Z,14564.1426
2023-04-22T02:35:56.124Z,14559.1426
2023-04-22T02:37:04.084Z,14556.0000
2023-04-22T02:38:12.261Z,14552.2139
2023-04-22T02:39:20.239Z,14552.0713
2023-04-22T02:40:28.399Z,14554.9287
2023-04-22T02:41:36.450Z,14558.3574
2023-04-22T02:42:44.403Z,14561.3574
2023-04-22T02:43:52.497Z,14569.5713
2023-04-22T02:45:00.439Z,14567.6426
2023-04-22T02:46:08.518Z,14568.6426
2023-04-22T02:47:16.587Z,14565.7861
2023-04-22T02:48:24.777Z,14564.5000
2023-04-22T02:49:32.854Z,14557.4287
2023-04-22T02:50:40.949Z,14548.6426
2023-04-22T02:51:49.022Z,14546.9287
2023-04-22T02:52:57.125Z,14539.2861
2023-04-22T02:54:05.191Z,14537.5713
2023-04-22T02:55:13.248Z,14536.0713
2023-04-22T02:56:21.267Z,14527.2861
2023-04-22T02:57:29.518Z,14518.0713
2023-04-22T02:58:37.509Z,14514.0000
2023-04-22T02:59:45.345Z,14513.2139
2023-04-22T03:00:53.440Z,14513.1426
2023-04-22T03:02:01.714Z,14515.4287
2023-04-22T03:03:09.819Z,14511.5713
2023-04-22T03:04:17.843Z,14508.0000
2023-04-22T03:05:25.838Z,14505.7861
2023-04-22T03:06:33.886Z,14499.0713
2023-04-22T03:07:41.961Z,14497.0713
2023-04-22T03:08:50.070Z,14503.7139
2023-04-22T03:09:58.292Z,14512.0000
2023-04-22T03:11:06.125Z,14518.7139
2023-04-22T03:12:14.222Z,14521.2139
2023-04-22T03:13:22.273Z,14522.0000
2023-04-22T03:14:30.252Z,14529.6426
2023-04-22T03:15:38.294Z,14526.2139
2023-04-22T03:16:46.378Z,14519.5713
2023-04-22T03:17:54.565Z,14515.4287
2023-04-22T03:19:02.654Z,14515.2861
2023-04-22T03:20:10.766Z,14520.8574
2023-04-22T03:21:18.777Z,14515.5000
2023-04-22T03:22:26.829Z,14517.9287
2023-04-22T03:23:34.887Z,14522.6426
2023-04-22T03:24:42.949Z,14530.2861
2023-04-22T03:25:51.112Z,14542.3574
2023-04-22T03:26:59.125Z,14548.7139
2023-04-22T03:28:07.148Z,14552.0713
2023-04-22T03:29:15.089Z,14558.2139
2023-04-22T03:30:23.185Z,14563.0000
2023-04-22T03:31:31.304Z,14558.9287
2023-04-22T03:32:39.447Z,14558.7861
2023-04-22T03:33:47.457Z,14554.9287
2023-04-22T03:34:55.576Z,14558.6426
2023-04-22T03:36:03.642Z,14562.8574
2023-04-22T03:37:11.781Z,14566.4287
2023-04-22T03:38:20.115Z,14564.8574
2023-04-22T03:39:27.842Z,14565.5713
2023-04-22T03:40:35.899Z,14572.7139
2023-04-22T03:41:44.038Z,14582.7861
2023-04-22T03:42:52.034Z,14582.9287
2023-04-22T03:44:01.775Z,14580.3574
2023-04-22T03:45:12.870Z,14577.7334
2023-04-22T03:46:21.210Z,14579.2861
2023-04-22T03:47:29.326Z,14577.2861
2023-04-22T03:48:37.226Z,14575.2139
2023-04-22T03:49:45.320Z,14577.1426
2023-04-22T03:50:53.365Z,14574.7861
2023-04-22T03:52:01.441Z,14574.8574
2023-04-22T03:53:09.641Z,14573.2139
2023-04-22T03:54:17.551Z,14579.0713
2023-04-22T03:55:25.639Z,14582.5713
2023-04-22T03:56:33.707Z,14588.0713
2023-04-22T03:57:41.651Z,14591.3574
2023-04-22T03:58:49.732Z,14583.7139
2023-04-22T03:59:57.762Z,14576.7139
2023-04-22T04:01:05.942Z,14574.0713
2023-04-22T04:02:14.125Z,14565.8574
2023-04-22T04:03:22.234Z,14557.2139
2023-04-22T04:04:30.646Z,14547.6426
2023-04-22T04:05:38.339Z,14543.7139
2023-04-22T04:06:46.241Z,14541.2139
2023-04-22T04:07:54.308Z,14539.0000
2023-04-22T04:09:02.468Z,14535.1426
2023-04-22T04:10:10.552Z,14531.8574
2023-04-22T04:11:18.526Z,14528.8574
2023-04-22T04:12:26.517Z,14520.5000
2023-04-22T04:13:34.573Z,14518.6426
2023-04-22T04:14:42.680Z,14513.1426
2023-04-22T04:15:50.924Z,14505.5000
2023-04-22T04:16:58.905Z,14501.4287
2023-04-22T04:18:07.072Z,14502.5000
2023-04-22T04:19:14.997Z,14504.9287
2023-04-22T04:20:23.145Z,14506.6426
2023-04-22T04:21:31.141Z,14511.5713
2023-04-22T04:22:39.242Z,14515.0000
2023-04-22T04:23:47.238Z,14511.2861
2023-04-22T04:24:55.505Z,14504.5713
2023-04-22T04:26:03.423Z,14505.5000
2023-04-22T04:27:11.349Z,14505.5000
2023-04-22T04:28:19.442Z,14506.7139
2023-04-22T04:29:27.511Z,14509.6426
2023-04-22T04:30:35.768Z,14515.6426
2023-04-22T04:31:44.018Z,14514.1426
2023-04-22T04:32:51.917Z,14515.5713
2023-04-22T04:33:59.872Z,14520.0000
2023-04-22T04:35:08.102Z,14526.0713
2023-04-22T04:36:16.071Z,14526.1426
2023-04-22T04:37:24.046Z,14524.4287
2023-04-22T04:38:32.118Z,14529.0000
2023-04-22T04:39:40.523Z,14536.0000
2023-04-22T04:40:48.189Z,14537.1426
2023-04-22T04:41:56.275Z,14542.1426
2023-04-22T04:43:04.340Z,14547.5713
2023-04-22T04:44:13.125Z,14546.2139
2023-04-22T04:45:20.599Z,14527.7861
2023-04-22T04:46:28.748Z,14522.3574
2023-04-22T04:47:36.804Z,14524.7139
2023-04-22T04:48:44.746Z,14525.2139
2023-04-22T04:49:52.849Z,14527.2139
2023-04-22T04:51:01.006Z,14533.5000
2023-04-22T04:52:09.005Z,14536.6426
2023-04-22T04:53:17.020Z,14540.3574
2023-04-22T04:54:25.045Z,14536.9287
2023-04-22T04:55:33.046Z,14537.0000
2023-04-22T04:56:41.130Z,14540.8574
2023-04-22T04:57:49.232Z,14542.3574
2023-04-22T04:58:57.615Z,14537.8574
2023-04-22T05:00:05.514Z,14540.9287
2023-04-22T05:01:13.562Z,14541.5000
2023-04-22T05:02:21.775Z,14544.7139
2023-04-22T05:03:29.816Z,14538.6426
2023-04-22T05:04:37.855Z,14534.5713
2023-04-22T05:05:45.718Z,14533.0000
2023-04-22T05:06:53.815Z,14528.8574
2023-04-22T05:08:02.072Z,14532.2861
2023-04-22T05:09:09.979Z,14532.7139
2023-04-22T05:10:17.925Z,14531.7861
2023-04-22T05:11:26.001Z,14526.7861
2023-04-22T05:12:34.047Z,14522.0713
2023-04-22T05:13:42.262Z,14520.5713
2023-04-22T05:14:50.370Z,14518.7861
2023-04-22T05:15:58.425Z,14516.9287
2023-04-22T05:17:06.391Z,14516.5000
2023-04-22T05:18:14.470Z,14514.5000
2023-04-22T05:19:22.596Z,14506.8574
2023-04-22T05:20:31.612Z,14496.5713
2023-04-22T05:21:43.550Z,14492.0000
2023-04-22T05:22:51.595Z,14484.8574
2023-04-22T05:23:59.592Z,14475.1426
2023-04-22T05:25:07.648Z,14468.5000
2023-04-22T05:26:15.788Z,14467.1426
2023-04-22T05:27:23.923Z,14461.9287
2023-04-22T05:28:31.956Z,14460.9287
2023-04-22T05:29:40.221Z,14455.8574
2023-04-22T05:30:48.100Z,14444.6426
2023-04-22T05:31:56.551Z,14445.5000
2023-04-22T05:33:04.301Z,14448.5713
2023-04-22T05:34:12.506Z,14442.9287
2023-04-22T05:35:20.341Z,14442.0000
2023-04-22T05:36:31.174Z,14440.3574
2023-04-22T05:37:41.246Z,14443.0664
2023-04-22T05:38:49.284Z,14446.0000
2023-04-22T05:39:57.367Z,14446.7139
2023-04-22T05:41:05.675Z,14443.1426
2023-04-22T05:42:13.640Z,14437.7139
2023-04-22T05:43:21.583Z,14431.5713
2023-04-22T05:44:29.683Z,14426.7861
2023-04-22T05:45:37.816Z,14422.5000
2023-04-22T05:46:45.846Z,14422.1426
2023-04-22T05:47:54.105Z,14420.5713
2023-04-22T05:49:01.920Z,14418.4287
2023-04-22T05:50:10.040Z,14418.0000
2023-04-22T05:51:18.171Z,14420.8574
2023-04-22T05:52:26.038Z,14424.9287
2023-04-22T05:53:34.183Z,14428.5000
2023-04-22T05:54:42.179Z,14430.7861
2023-04-22T05:55:50.339Z,14430.7139
2023-04-22T05:56:58.399Z,14428.7139
2023-04-22T05:58:06.461Z,14427.2861
2023-04-22T05:59:14.663Z,14428.0713
2023-04-22T06:00:22.576Z,14425.8574
2023-04-22T06:01:30.638Z,14421.9287
2023-04-22T06:02:38.835Z,14418.9287
2023-04-22T06:03:46.913Z,14419.5713
2023-04-22T06:04:55.048Z,14418.5000
2023-04-22T06:06:02.936Z,14416.1426
2023-04-22T06:07:10.906Z,14415.7861
2023-04-22T06:08:18.965Z,14423.2139
2023-04-22T06:09:27.147Z,14424.5713
2023-04-22T06:10:35.231Z,14420.7139
2023-04-22T06:11:43.304Z,14422.0713
2023-04-22T06:12:51.417Z,14421.1426
2023-04-22T06:13:59.363Z,14419.0713
2023-04-22T06:15:07.642Z,14417.5000
2023-04-22T06:16:15.651Z,14418.5000
2023-04-22T06:17:23.685Z,14414.4287
2023-04-22T06:18:31.720Z,14413.2139
2023-04-22T06:19:40.084Z,14415.0713
2023-04-22T06:20:47.788Z,14414.0713
2023-04-22T06:21:55.797Z,14415.8574
2023-04-22T06:23:03.870Z,14417.3574
2023-04-22T06:24:11.996Z,14415.2139
2023-04-22T06:25:20.067Z,14417.2139
2023-04-22T06:26:28.198Z,14418.2139
2023-04-22T06:27:36.194Z,14418.4287
2023-04-22T06:28:44.262Z,14414.2861
2023-04-22T06:29:52.482Z,14407.6426
2023-04-22T06:31:00.407Z,14402.5713
2023-04-22T06:32:08.558Z,14399.9287
2023-04-22T06:33:16.650Z,14400.0000
2023-04-22T06:34:24.658Z,14398.0000
2023-04-22T06:35:32.575Z,14394.7861
2023-04-22T06:36:40.657Z,14392.8574
2023-04-22T06:37:48.738Z,14391.0713
2023-04-22T06:38:56.917Z,14385.9287
2023-04-22T06:40:04.905Z,14385.0713
2023-04-22T06:41:13.007Z,14384.4287
2023-04-22T06:42:21.032Z,14382.5000
2023-04-22T06:43:29.152Z,14381.2861
2023-04-22T06:44:37.157Z,14378.3574
2023-04-22T06:45:45.291Z,14375.0000
2023-04-22T06:46:54.758Z,14374.5000
2023-04-22T06:48:06.226Z,14372.0000
2023-04-22T06:49:14.273Z,14370.6426
2023-04-22T06:50:22.352Z,14370.4287
2023-04-22T06:51:30.341Z,14371.5713
2023-04-22T06:52:38.423Z,14374.7139
2023-04-22T06:53:46.487Z,14371.6426
2023-04-22T06:54:54.599Z,14366.8574
2023-04-22T06:56:02.672Z,14360.8574
2023-04-22T06:57:10.705Z,14356.5000
2023-04-22T06:58:18.809Z,14354.5713
2023-04-22T06:59:26.887Z,14356.9287
2023-04-22T07:00:34.963Z,14353.0000
2023-04-22T07:01:43.095Z,14349.4287
2023-04-22T07:02:51.191Z,14347.7139
2023-04-22T07:03:59.129Z,14348.0000
2023-04-22T07:05:07.146Z,14340.7139
2023-04-22T07:06:15.204Z,14337.5000
2023-04-22T07:07:23.256Z,14336.1426
2023-04-22T07:08:31.463Z,14332.2861
2023-04-22T07:09:39.708Z,14330.8574
2023-04-22T07:10:47.558Z,14330.3574
2023-04-22T07:11:55.571Z,14328.5713
2023-04-22T07:13:03.768Z,14327.5000
2023-04-22T07:14:11.688Z,14331.9287
2023-04-22T07:15:19.895Z,14327.1426
2023-04-22T07:16:27.972Z,14322.5713
2023-04-22T07:17:36.010Z,14324.1426
2023-04-22T07:18:43.897Z,14324.2861
2023-04-22T07:19:51.971Z,14318.8574
2023-04-22T07:21:00.035Z,14316.4287
2023-04-22T07:22:08.127Z,14312.6426
2023-04-22T07:23:16.183Z,14313.1426
2023-04-22T07:24:24.383Z,14311.8574
2023-04-22T07:25:32.322Z,14310.1426
2023-04-22T07:26:40.528Z,14312.1426
2023-04-22T07:27:48.514Z,14312.3574
2023-04-22T07:28:56.541Z,14312.1426
2023-04-22T07:30:04.586Z,14310.6426
2023-04-22T07:31:12.683Z,14311.4287
2023-04-22T07:32:20.855Z,14309.7139
2023-04-22T07:33:28.747Z,14307.4287
2023-04-22T07:34:36.791Z,14306.4287
2023-04-22T07:35:44.829Z,14303.9287
2023-04-22T07:36:52.870Z,14303.7861
2023-04-22T07:38:01.035Z,14301.5713
2023-04-22T07:39:09.251Z,14300.7861
2023-04-22T07:40:17.165Z,14299.6426
2023-04-22T07:41:25.245Z,14300.5713
2023-04-22T07:42:33.415Z,14298.1426
2023-04-22T07:43:41.355Z,14299.7861
2023-04-22T07:44:49.455Z,14299.3574
2023-04-22T07:45:57.538Z,14299.6426
2023-04-22T07:47:05.690Z,14295.5713
2023-04-22T07:48:13.622Z,14293.3574
2023-04-22T07:49:21.632Z,14291.0713
2023-04-22T07:50:29.731Z,14288.5000
2023-04-22T07:51:37.827Z,14287.8574
2023-04-22T07:52:45.940Z,14285.5000
2023-04-22T07:53:53.912Z,14283.1426
2023-04-22T07:55:02.162Z,14282.6426
2023-04-22T07:56:10.105Z,14280.3574
2023-04-22T07:57:18.151Z,14278.7139
2023-04-22T07:58:26.234Z,14276.0713
2023-04-22T07:59:34.300Z,14277.2139
2023-04-22T08:00:42.494Z,14273.7861
2023-04-22T08:01:50.651Z,14273.0000
2023-04-22T08:02:58.577Z,14274.0000
2023-04-22T08:04:06.656Z,14268.2139
2023-04-22T08:05:14.634Z,14265.0713
2023-04-22T08:06:23.022Z,14264.0713
2023-04-22T08:07:33.394Z,14257.2861
2023-04-22T08:08:43.734Z,14254.8662
2023-04-22T08:09:51.939Z,14251.5713
2023-04-22T08:10:59.932Z,14249.8574
2023-04-22T08:12:07.906Z,14246.3574
2023-04-22T08:13:18.136Z,14245.2861
2023-04-22T08:14:28.877Z,14246.3330
2023-04-22T08:15:36.940Z,14242.7139
2023-04-22T08:16:44.935Z,14238.2139
2023-04-22T08:17:53.039Z,14231.5713
2023-04-22T08:19:01.280Z,14229.6426
2023-04-22T08:20:09.263Z,14225.2139
2023-04-22T08:21:17.295Z,14223.0000
2023-04-22T08:22:25.344Z,14219.4287
2023-04-22T08:23:33.488Z,14219.1426
2023-04-22T08:24:41.444Z,14220.0713
2023-04-22T08:25:49.583Z,14219.5713
2023-04-22T08:26:57.617Z,14222.0000
2023-04-22T08:28:05.707Z,14218.9287
2023-04-22T08:29:13.743Z,14214.0000
2023-04-22T08:30:21.741Z,14218.2139
2023-04-22T08:31:29.772Z,14218.3574
2023-04-22T08:32:37.877Z,14215.7139
2023-04-22T08:33:46.083Z,14215.1426
2023-04-22T08:34:57.720Z,14213.7861
2023-04-22T08:36:06.984Z,14215.0000
2023-04-22T08:37:15.065Z,14215.1426
2023-04-22T08:38:23.056Z,14219.8574
2023-04-22T08:39:31.298Z,14219.7139
2023-04-22T08:40:39.349Z,14219.5713
2023-04-22T08:41:47.276Z,14219.3574
2023-04-22T08:42:55.425Z,14217.9287
2023-04-22T08:44:03.334Z,14220.4287
2023-04-22T08:45:11.436Z,14221.4287
2023-04-22T08:46:19.471Z,14222.0713
2023-04-22T08:47:27.625Z,14219.5713
2023-04-22T08:48:35.734Z,14219.5713
2023-04-22T08:49:43.641Z,14223.5713
2023-04-22T08:50:51.898Z,14224.5000
2023-04-22T08:51:59.971Z,14227.2861
2023-04-22T08:53:07.912Z,14225.8574
2023-04-22T08:54:16.062Z,14227.5000
2023-04-22T08:55:24.040Z,14224.7861
2023-04-22T08:56:32.125Z,14219.9287
2023-04-22T08:57:40.196Z,14218.0713
2023-04-22T08:58:48.231Z,14216.6426
2023-04-22T08:59:56.242Z,14212.0000
2023-04-22T09:01:04.318Z,14211.4287
2023-04-22T09:02:12.543Z,14208.6426
2023-04-22T09:03:20.574Z,14203.2139
2023-04-22T09:04:28.604Z,14201.8574
2023-04-22T09:05:36.687Z,14197.1426
2023-04-22T09:06:44.664Z,14193.6426
2023-04-22T09:07:52.872Z,14194.3574
2023-04-22T09:09:00.826Z,14192.7139
2023-04-22T09:10:08.862Z,14190.5713
2023-04-22T09:11:16.911Z,14186.2139
2023-04-22T09:12:24.994Z,14186.6426
2023-04-22T09:13:33.014Z,14187.0713
2023-04-22T09:14:41.031Z,14189.6426
2023-04-22T09:15:49.075Z,14191.5000
2023-04-22T09:16:57.388Z,14191.8574
2023-04-22T09:18:05.295Z,14188.9287
2023-04-22T09:19:13.429Z,14187.2139
2023-04-22T09:20:21.488Z,14182.7139
2023-04-22T09:21:29.494Z,14181.1426
2023-04-22T09:22:37.523Z,14181.8574
2023-04-22T09:23:45.720Z,14181.0000
2023-04-22T09:24:53.723Z,14179.0000
2023-04-22T09:26:01.744Z,14172.2139
2023-04-22T09:27:09.768Z,14174.1426
2023-04-22T09:28:17.919Z,14173.7139
2023-04-22T09:29:25.837Z,14171.9287
2023-04-22T09:30:34.082Z,14172.5713
2023-04-22T09:31:41.994Z,14172.0713
2023-04-22T09:32:50.146Z,14173.0000
2023-04-22T09:33:58.146Z,14170.5713
2023-04-22T09:35:06.311Z,14170.5713
2023-04-22T09:36:14.291Z,14174.5713
2023-04-22T09:37:22.337Z,14169.8574
2023-04-22T09:38:30.432Z,14169.9287
2023-04-22T09:39:38.711Z,14172.4287
2023-04-22T09:40:46.488Z,14171.7861
2023-04-22T09:41:54.659Z,14169.7861
2023-04-22T09:43:02.601Z,14163.3574
2023-04-22T09:44:10.711Z,14157.7139
2023-04-22T09:45:18.940Z,14153.2139
2023-04-22T09:46:26.742Z,14148.7861
2023-04-22T09:47:34.916Z,14153.0000
2023-04-22T09:48:43.031Z,14159.7861
2023-04-22T09:49:51.083Z,14161.6426
2023-04-22T09:50:59.072Z,14156.2139
2023-04-22T09:52:07.174Z,14159.7861
2023-04-22T09:53:15.216Z,14154.7861
2023-04-22T09:54:23.242Z,14150.3574
2023-04-22T09:55:31.477Z,14145.8574
2023-04-22T09:56:39.394Z,14145.4287
2023-04-22T09:57:47.432Z,14143.0713
2023-04-22T09:58:55.446Z,14141.2139
2023-04-22T10:00:03.472Z,14136.6426
2023-04-22T10:01:11.594Z,14137.4287
2023-04-22T10:02:19.698Z,14141.2139
2023-04-22T10:03:27.853Z,14137.0000
2023-04-22T10:04:36.073Z,14126.4287
2023-04-22T10:05:43.854Z,14131.8574
2023-04-22T10:06:51.931Z,14128.9287
2023-04-22T10:08:00.183Z,14125.5713
2023-04-22T10:09:09.411Z,14124.6426
2023-04-22T10:10:16.102Z,14128.4287
2023-04-22T10:11:24.540Z,14132.5713
2023-04-22T10:12:35.532Z,14139.2139
2023-04-22T10:13:45.112Z,14150.0000
2023-04-22T10:14:53.372Z,14149.0713
2023-04-22T10:16:01.336Z,14147.2861
2023-04-22T10:17:09.386Z,14142.2139
2023-04-22T10:18:17.381Z,14146.2861
2023-04-22T10:19:25.609Z,14149.3574
2023-04-22T10:20:33.620Z,14145.7861
2023-04-22T10:21:41.675Z,14138.0000
2023-04-22T10:22:49.723Z,14126.2139
2023-04-22T10:23:57.773Z,14101.7139
2023-04-22T10:25:06.027Z,14066.3574
2023-04-22T10:26:13.845Z,14026.4287
2023-04-22T10:27:21.878Z,13995.7139
2023-04-22T10:28:29.998Z,13964.8574
2023-04-22T10:29:38.316Z,13920.7139
2023-04-22T10:30:46.185Z,13895.6426
2023-04-22T10:31:54.260Z,13866.6426
2023-04-22T10:33:02.328Z,13846.8574
2023-04-22T10:34:10.313Z,13845.2139
2023-04-22T10:35:18.496Z,13838.6426
2023-04-22T10:36:26.486Z,13806.2139
2023-04-22T10:37:34.514Z,13788.1426
2023-04-22T10:38:42.556Z,13776.0713
2023-04-22T10:39:50.740Z,13779.0713
2023-04-22T10:40:58.726Z,13778.8574
2023-04-22T10:42:06.727Z,13765.0713
2023-04-22T10:43:14.778Z,13735.4287
2023-04-22T10:44:23.006Z,13720.0000
2023-04-22T10:45:30.951Z,13705.0000
2023-04-22T10:46:39.099Z,13693.8574
2023-04-22T10:47:47.256Z,13677.8574
2023-04-22T10:48:55.225Z,13673.5713
2023-04-22T10:50:03.291Z,13674.5000
2023-04-22T10:51:11.506Z,13670.9287
2023-04-22T10:52:19.531Z,13664.2861
2023-04-22T10:53:27.568Z,13667.5713
2023-04-22T10:54:35.606Z,13667.5000
2023-04-22T10:55:43.780Z,13680.7861
2023-04-22T10:56:57.584Z,13706.8574
2023-04-22T10:58:04.648Z,13731.4004
2023-04-22T10:59:12.738Z,13735.5000
2023-04-22T11:00:20.861Z,13720.5713
2023-04-22T11:01:28.917Z,13722.9287
2023-04-22T11:02:36.951Z,13726.5000
2023-04-22T11:03:45.038Z,13720.0713
2023-04-22T11:04:53.083Z,13737.3574
2023-04-22T11:06:01.081Z,13752.9287
2023-04-22T11:07:09.251Z,13766.4287
2023-04-22T11:08:17.201Z,13772.1426
2023-04-22T11:09:25.161Z,13770.7139
2023-04-22T11:10:33.284Z,13783.0713
2023-04-22T11:11:41.328Z,13795.3574
2023-04-22T11:12:49.435Z,13802.6426
2023-04-22T11:13:57.482Z,13822.6426
2023-04-22T11:15:05.615Z,13831.8574
2023-04-22T11:16:13.659Z,13832.6426
2023-04-22T11:17:21.704Z,13831.4287
2023-04-22T11:18:29.758Z,13845.9287
2023-04-22T11:19:38.212Z,13870.9287
2023-04-22T11:20:45.932Z,13902.7139
2023-04-22T11:21:54.088Z,13927.0000
2023-04-22T11:23:02.093Z,13936.5000
2023-04-22T11:24:10.033Z,13958.6426
2023-04-22T11:25:18.077Z,13973.2861
2023-04-22T11:26:26.182Z,13980.5000
2023-04-22T11:27:34.234Z,13994.5713
2023-04-22T11:28:42.344Z,14015.5000
2023-04-22T11:29:50.391Z,14026.6426
2023-04-22T11:30:58.469Z,14045.5713
2023-04-22T11:32:06.426Z,14048.2861
2023-04-22T11:33:14.515Z,14031.2139
2023-04-22T11:34:22.688Z,14023.5000
2023-04-22T11:35:30.809Z,14010.3574
2023-04-22T11:36:38.820Z,13996.1426
2023-04-22T11:37:46.863Z,13983.2139
2023-04-22T11:38:54.811Z,13965.7139
2023-04-22T11:40:21.373Z,13947.3574
2023-04-22T11:41:15.897Z,13940.5996
2023-04-22T11:42:24.079Z,13959.6426
2023-04-22T11:43:31.908Z,13977.1426
2023-04-22T11:44:39.975Z,13979.1426
2023-04-22T11:45:48.094Z,13975.2139
2023-04-22T11:46:56.317Z,13971.4287
2023-04-22T11:48:04.220Z,13982.1426
2023-04-22T11:49:12.373Z,13997.5000
2023-04-22T11:50:20.241Z,14006.0713
2023-04-22T11:51:28.347Z,14019.8574
2023-04-22T11:52:36.372Z,14013.1426
2023-04-22T11:53:44.454Z,13992.1426
2023-04-22T11:54:52.495Z,13972.0000
2023-04-22T11:56:00.713Z,13934.9287
2023-04-22T11:57:08.784Z,13936.0713
2023-04-22T11:58:16.703Z,13936.9287
2023-04-22T11:59:24.923Z,13924.5713
2023-04-22T12:00:32.945Z,13886.6426
2023-04-22T12:01:41.118Z,13856.5000
2023-04-22T12:02:49.132Z,13837.0000
2023-04-22T12:03:57.208Z,13841.5713
2023-04-22T12:05:05.127Z,13842.7139
2023-04-22T12:06:13.097Z,13871.5000
2023-04-22T12:07:21.186Z,13891.4287
2023-04-22T12:08:29.238Z,13923.5000
2023-04-22T12:09:37.484Z,13955.7139
2023-04-22T12:10:45.384Z,13978.9287
2023-04-22T12:11:53.434Z,13993.8574
2023-04-22T12:13:01.578Z,14011.8574
2023-04-22T12:14:09.569Z,14028.2139
2023-04-22T12:15:18.751Z,14043.0713
2023-04-22T12:16:25.749Z,14052.3574
2023-04-22T12:17:33.727Z,14058.5000
2023-04-22T12:18:41.799Z,14063.3574
2023-04-22T12:19:49.916Z,14072.2139
2023-04-22T12:20:58.001Z,14082.5713
2023-04-22T12:22:06.246Z,14094.8574
2023-04-22T12:23:14.012Z,14102.1426
2023-04-22T12:24:22.124Z,14101.6426
2023-04-22T12:25:30.145Z,14106.7861
2023-04-22T12:26:38.202Z,14109.2861
2023-04-22T12:27:46.257Z,14113.2139
2023-04-22T12:28:54.318Z,14111.9287
2023-04-22T12:30:02.466Z,14113.3574
2023-04-22T12:31:10.558Z,14117.8574
2023-04-22T12:32:18.550Z,14124.7861
2023-04-22T12:33:26.554Z,14134.4287
2023-04-22T12:34:34.653Z,14141.0713
2023-04-22T12:35:42.763Z,14139.9287